sensor_id;sensor_type;location;lat;lon;timestamp;P1;durP1;ratioP1;P2;durP2;ratioP2
80653;SDS011;70020;45.524;10.240;2024-03-22T00:02:02;94.32;;;58.90;;
80653;SDS011;70020;45.524;10.240;2024-03-22T00:04:28;93.95;;;59.75;;
80653;SDS011;70020;45.524;10.240;2024-03-22T00:06:53;87.53;;;57.17;;
80653;SDS011;70020;45.524;10.240;2024-03-22T00:09:19;85.75;;;57.90;;
80653;SDS011;70020;45.524;10.240;2024-03-22T00:11:45;91.93;;;56.87;;
80653;SDS011;70020;45.524;10.240;2024-03-22T00:14:10;85.10;;;55.05;;
80653;SDS011;70020;45.524;10.240;2024-03-22T00:16:37;88.97;;;55.90;;
80653;SDS011;70020;45.524;10.240;2024-03-22T00:19:03;90.03;;;57.75;;
80653;SDS011;70020;45.524;10.240;2024-03-22T00:21:29;92.95;;;58.28;;
80653;SDS011;70020;45.524;10.240;2024-03-22T00:23:56;89.60;;;57.60;;
80653;SDS011;70020;45.524;10.240;2024-03-22T00:26:22;88.82;;;55.42;;
80653;SDS011;70020;45.524;10.240;2024-03-22T00:28:47;91.50;;;56.80;;
80653;SDS011;70020;45.524;10.240;2024-03-22T00:33:40;91.55;;;57.38;;
80653;SDS011;70020;45.524;10.240;2024-03-22T00:36:06;88.03;;;57.42;;
80653;SDS011;70020;45.524;10.240;2024-03-22T00:38:33;89.40;;;57.38;;
80653;SDS011;70020;45.524;10.240;2024-03-22T00:40:59;88.70;;;58.43;;
80653;SDS011;70020;45.524;10.240;2024-03-22T00:43:25;89.50;;;56.47;;
80653;SDS011;70020;45.524;10.240;2024-03-22T00:45:51;92.57;;;56.55;;
80653;SDS011;70020;45.524;10.240;2024-03-22T00:48:17;92.38;;;57.08;;
80653;SDS011;70020;45.524;10.240;2024-03-22T00:50:43;87.90;;;53.75;;
80653;SDS011;70020;45.524;10.240;2024-03-22T00:53:09;94.60;;;58.15;;
80653;SDS011;70020;45.524;10.240;2024-03-22T00:55:35;86.65;;;53.38;;
80653;SDS011;70020;45.524;10.240;2024-03-22T00:58:01;91.45;;;56.80;;
80653;SDS011;70020;45.524;10.240;2024-03-22T01:00:26;95.50;;;57.77;;
80653;SDS011;70020;45.524;10.240;2024-03-22T01:02:52;95.03;;;55.90;;
80653;SDS011;70020;45.524;10.240;2024-03-22T01:05:18;98.20;;;58.83;;
80653;SDS011;70020;45.524;10.240;2024-03-22T01:07:44;92.90;;;55.55;;
80653;SDS011;70020;45.524;10.240;2024-03-22T01:10:10;93.93;;;57.22;;
80653;SDS011;70020;45.524;10.240;2024-03-22T01:12:36;91.55;;;54.80;;
80653;SDS011;70020;45.524;10.240;2024-03-22T01:17:37;92.85;;;55.28;;
80653;SDS011;70020;45.524;10.240;2024-03-22T01:20:03;95.97;;;54.08;;
80653;SDS011;70020;45.524;10.240;2024-03-22T01:22:28;94.68;;;54.67;;
80653;SDS011;70020;45.524;10.240;2024-03-22T01:24:54;92.90;;;55.13;;
80653;SDS011;70020;45.524;10.240;2024-03-22T01:27:20;95.17;;;54.57;;
80653;SDS011;70020;45.524;10.240;2024-03-22T01:29:46;94.05;;;54.47;;
80653;SDS011;70020;45.524;10.240;2024-03-22T01:32:12;92.30;;;54.67;;
80653;SDS011;70020;45.524;10.240;2024-03-22T01:34:38;92.00;;;55.35;;
80653;SDS011;70020;45.524;10.240;2024-03-22T01:37:24;91.35;;;54.85;;
80653;SDS011;70020;45.524;10.240;2024-03-22T01:39:50;94.95;;;55.63;;
80653;SDS011;70020;45.524;10.240;2024-03-22T01:42:16;91.53;;;55.47;;
80653;SDS011;70020;45.524;10.240;2024-03-22T01:44:48;88.70;;;53.42;;
80653;SDS011;70020;45.524;10.240;2024-03-22T01:47:14;98.45;;;58.85;;
80653;SDS011;70020;45.524;10.240;2024-03-22T01:49:40;96.13;;;60.05;;
80653;SDS011;70020;45.524;10.240;2024-03-22T01:52:09;94.97;;;57.60;;
80653;SDS011;70020;45.524;10.240;2024-03-22T01:54:35;92.05;;;55.72;;
80653;SDS011;70020;45.524;10.240;2024-03-22T01:57:01;94.27;;;57.17;;
80653;SDS011;70020;45.524;10.240;2024-03-22T01:59:26;96.10;;;59.13;;
80653;SDS011;70020;45.524;10.240;2024-03-22T02:01:57;92.28;;;55.45;;
80653;SDS011;70020;45.524;10.240;2024-03-22T02:04:22;93.00;;;55.60;;
80653;SDS011;70020;45.524;10.240;2024-03-22T02:06:49;96.07;;;55.60;;
80653;SDS011;70020;45.524;10.240;2024-03-22T02:09:15;100.90;;;55.95;;
80653;SDS011;70020;45.524;10.240;2024-03-22T02:11:40;90.93;;;54.67;;
80653;SDS011;70020;45.524;10.240;2024-03-22T02:14:07;107.40;;;60.92;;
80653;SDS011;70020;45.524;10.240;2024-03-22T02:16:33;104.22;;;59.85;;
80653;SDS011;70020;45.524;10.240;2024-03-22T02:18:59;97.63;;;58.38;;
80653;SDS011;70020;45.524;10.240;2024-03-22T02:21:25;99.18;;;58.35;;
80653;SDS011;70020;45.524;10.240;2024-03-22T02:23:54;96.13;;;56.63;;
80653;SDS011;70020;45.524;10.240;2024-03-22T02:26:20;102.15;;;59.72;;
80653;SDS011;70020;45.524;10.240;2024-03-22T02:28:46;100.63;;;57.58;;
80653;SDS011;70020;45.524;10.240;2024-03-22T02:31:12;91.13;;;52.03;;
80653;SDS011;70020;45.524;10.240;2024-03-22T02:33:37;99.73;;;57.07;;
80653;SDS011;70020;45.524;10.240;2024-03-22T02:36:03;103.23;;;58.80;;
80653;SDS011;70020;45.524;10.240;2024-03-22T02:38:30;99.90;;;57.35;;
80653;SDS011;70020;45.524;10.240;2024-03-22T02:40:57;96.10;;;57.73;;
80653;SDS011;70020;45.524;10.240;2024-03-22T02:43:23;95.25;;;56.17;;
80653;SDS011;70020;45.524;10.240;2024-03-22T02:45:49;90.18;;;54.05;;
80653;SDS011;70020;45.524;10.240;2024-03-22T02:48:15;87.40;;;53.07;;
80653;SDS011;70020;45.524;10.240;2024-03-22T02:50:41;98.00;;;57.25;;
80653;SDS011;70020;45.524;10.240;2024-03-22T02:53:06;99.30;;;58.13;;
80653;SDS011;70020;45.524;10.240;2024-03-22T02:55:39;96.40;;;56.75;;
80653;SDS011;70020;45.524;10.240;2024-03-22T02:58:06;76.40;;;48.08;;
80653;SDS011;70020;45.524;10.240;2024-03-22T03:00:38;96.13;;;56.85;;
80653;SDS011;70020;45.524;10.240;2024-03-22T03:03:04;102.68;;;61.80;;
80653;SDS011;70020;45.524;10.240;2024-03-22T03:05:31;103.13;;;61.33;;
80653;SDS011;70020;45.524;10.240;2024-03-22T03:07:56;105.60;;;59.30;;
80653;SDS011;70020;45.524;10.240;2024-03-22T03:10:23;97.78;;;56.53;;
80653;SDS011;70020;45.524;10.240;2024-03-22T03:12:48;97.25;;;59.42;;
80653;SDS011;70020;45.524;10.240;2024-03-22T03:15:15;104.57;;;62.17;;
80653;SDS011;70020;45.524;10.240;2024-03-22T03:17:41;103.45;;;59.60;;
80653;SDS011;70020;45.524;10.240;2024-03-22T03:20:07;102.93;;;59.90;;
80653;SDS011;70020;45.524;10.240;2024-03-22T03:22:35;111.03;;;62.05;;
80653;SDS011;70020;45.524;10.240;2024-03-22T03:25:03;109.18;;;62.03;;
80653;SDS011;70020;45.524;10.240;2024-03-22T03:27:29;104.45;;;61.47;;
80653;SDS011;70020;45.524;10.240;2024-03-22T03:29:55;104.38;;;59.90;;
80653;SDS011;70020;45.524;10.240;2024-03-22T03:32:21;101.38;;;59.80;;
80653;SDS011;70020;45.524;10.240;2024-03-22T03:34:46;94.90;;;57.90;;
80653;SDS011;70020;45.524;10.240;2024-03-22T03:37:12;102.22;;;60.20;;
80653;SDS011;70020;45.524;10.240;2024-03-22T03:39:39;102.38;;;62.42;;
80653;SDS011;70020;45.524;10.240;2024-03-22T03:42:06;112.63;;;67.28;;
80653;SDS011;70020;45.524;10.240;2024-03-22T03:44:32;115.38;;;65.40;;
80653;SDS011;70020;45.524;10.240;2024-03-22T03:46:59;117.03;;;68.93;;
80653;SDS011;70020;45.524;10.240;2024-03-22T03:49:26;127.00;;;66.75;;
80653;SDS011;70020;45.524;10.240;2024-03-22T03:51:52;119.85;;;66.85;;
80653;SDS011;70020;45.524;10.240;2024-03-22T03:54:18;109.93;;;65.63;;
80653;SDS011;70020;45.524;10.240;2024-03-22T03:56:44;110.05;;;63.55;;
80653;SDS011;70020;45.524;10.240;2024-03-22T03:59:10;110.63;;;62.90;;
80653;SDS011;70020;45.524;10.240;2024-03-22T04:01:35;103.77;;;61.10;;
80653;SDS011;70020;45.524;10.240;2024-03-22T04:04:02;104.93;;;59.40;;
80653;SDS011;70020;45.524;10.240;2024-03-22T04:06:29;79.97;;;49.97;;
80653;SDS011;70020;45.524;10.240;2024-03-22T04:08:55;97.33;;;55.27;;
80653;SDS011;70020;45.524;10.240;2024-03-22T04:11:20;87.83;;;49.77;;
80653;SDS011;70020;45.524;10.240;2024-03-22T04:13:46;85.43;;;48.47;;
80653;SDS011;70020;45.524;10.240;2024-03-22T04:16:12;89.57;;;51.03;;
80653;SDS011;70020;45.524;10.240;2024-03-22T04:18:38;78.30;;;47.88;;
80653;SDS011;70020;45.524;10.240;2024-03-22T04:21:04;88.67;;;49.40;;
80653;SDS011;70020;45.524;10.240;2024-03-22T04:23:30;86.78;;;48.58;;
80653;SDS011;70020;45.524;10.240;2024-03-22T04:25:57;83.32;;;47.50;;
80653;SDS011;70020;45.524;10.240;2024-03-22T04:28:24;83.45;;;47.85;;
80653;SDS011;70020;45.524;10.240;2024-03-22T04:33:32;80.07;;;46.83;;
80653;SDS011;70020;45.524;10.240;2024-03-22T04:35:58;75.63;;;43.22;;
80653;SDS011;70020;45.524;10.240;2024-03-22T04:40:51;75.88;;;41.47;;
80653;SDS011;70020;45.524;10.240;2024-03-22T04:43:16;76.88;;;42.03;;
80653;SDS011;70020;45.524;10.240;2024-03-22T04:45:42;72.25;;;40.70;;
80653;SDS011;70020;45.524;10.240;2024-03-22T04:50:35;75.65;;;40.85;;
80653;SDS011;70020;45.524;10.240;2024-03-22T04:53:00;68.80;;;40.93;;
80653;SDS011;70020;45.524;10.240;2024-03-22T04:57:52;80.43;;;43.95;;
80653;SDS011;70020;45.524;10.240;2024-03-22T05:00:22;73.93;;;44.42;;
80653;SDS011;70020;45.524;10.240;2024-03-22T05:02:50;81.72;;;47.85;;
80653;SDS011;70020;45.524;10.240;2024-03-22T05:05:15;86.38;;;50.70;;
80653;SDS011;70020;45.524;10.240;2024-03-22T05:07:42;87.10;;;51.08;;
80653;SDS011;70020;45.524;10.240;2024-03-22T05:10:07;91.10;;;51.83;;
80653;SDS011;70020;45.524;10.240;2024-03-22T05:12:34;85.00;;;50.72;;
80653;SDS011;70020;45.524;10.240;2024-03-22T05:15:00;97.97;;;56.17;;
80653;SDS011;70020;45.524;10.240;2024-03-22T05:17:26;100.03;;;54.72;;
80653;SDS011;70020;45.524;10.240;2024-03-22T05:19:54;96.30;;;57.40;;
80653;SDS011;70020;45.524;10.240;2024-03-22T05:22:20;106.30;;;62.22;;
80653;SDS011;70020;45.524;10.240;2024-03-22T05:24:45;105.17;;;60.17;;
80653;SDS011;70020;45.524;10.240;2024-03-22T05:27:11;99.80;;;58.92;;
80653;SDS011;70020;45.524;10.240;2024-03-22T05:32:04;101.20;;;57.17;;
80653;SDS011;70020;45.524;10.240;2024-03-22T05:34:30;95.53;;;56.58;;
80653;SDS011;70020;45.524;10.240;2024-03-22T05:36:56;101.63;;;58.37;;
80653;SDS011;70020;45.524;10.240;2024-03-22T05:39:21;94.03;;;56.03;;
80653;SDS011;70020;45.524;10.240;2024-03-22T05:41:47;91.33;;;53.53;;
80653;SDS011;70020;45.524;10.240;2024-03-22T05:44:12;87.90;;;53.57;;
80653;SDS011;70020;45.524;10.240;2024-03-22T05:46:38;94.20;;;56.77;;
80653;SDS011;70020;45.524;10.240;2024-03-22T05:49:04;96.60;;;55.20;;
80653;SDS011;70020;45.524;10.240;2024-03-22T05:51:29;106.53;;;58.73;;
80653;SDS011;70020;45.524;10.240;2024-03-22T05:53:56;98.00;;;56.00;;
80653;SDS011;70020;45.524;10.240;2024-03-22T05:56:22;98.25;;;54.92;;
80653;SDS011;70020;45.524;10.240;2024-03-22T05:58:48;94.95;;;54.53;;
80653;SDS011;70020;45.524;10.240;2024-03-22T06:01:14;85.55;;;49.95;;
80653;SDS011;70020;45.524;10.240;2024-03-22T06:03:40;89.40;;;51.83;;
80653;SDS011;70020;45.524;10.240;2024-03-22T06:06:06;90.80;;;51.67;;
80653;SDS011;70020;45.524;10.240;2024-03-22T06:08:32;87.77;;;50.73;;
80653;SDS011;70020;45.524;10.240;2024-03-22T06:10:59;74.28;;;44.38;;
80653;SDS011;70020;45.524;10.240;2024-03-22T06:13:25;80.20;;;49.60;;
80653;SDS011;70020;45.524;10.240;2024-03-22T06:15:51;87.55;;;50.58;;
80653;SDS011;70020;45.524;10.240;2024-03-22T06:18:17;83.27;;;48.97;;
80653;SDS011;70020;45.524;10.240;2024-03-22T06:20:45;93.72;;;54.42;;
80653;SDS011;70020;45.524;10.240;2024-03-22T06:23:13;87.22;;;49.67;;
80653;SDS011;70020;45.524;10.240;2024-03-22T06:25:38;88.67;;;51.47;;
80653;SDS011;70020;45.524;10.240;2024-03-22T06:28:04;88.03;;;49.23;;
80653;SDS011;70020;45.524;10.240;2024-03-22T06:32:56;80.55;;;46.28;;
80653;SDS011;70020;45.524;10.240;2024-03-22T06:35:22;72.23;;;42.27;;
80653;SDS011;70020;45.524;10.240;2024-03-22T06:37:48;63.73;;;36.87;;
80653;SDS011;70020;45.524;10.240;2024-03-22T06:40:13;66.47;;;38.07;;
80653;SDS011;70020;45.524;10.240;2024-03-22T06:42:39;69.82;;;40.42;;
80653;SDS011;70020;45.524;10.240;2024-03-22T06:45:05;69.83;;;39.77;;
80653;SDS011;70020;45.524;10.240;2024-03-22T06:47:32;70.05;;;39.70;;
80653;SDS011;70020;45.524;10.240;2024-03-22T06:49:58;59.67;;;34.42;;
80653;SDS011;70020;45.524;10.240;2024-03-22T06:52:24;66.22;;;38.25;;
80653;SDS011;70020;45.524;10.240;2024-03-22T06:54:50;70.82;;;38.67;;
80653;SDS011;70020;45.524;10.240;2024-03-22T06:57:17;51.97;;;30.40;;
80653;SDS011;70020;45.524;10.240;2024-03-22T06:59:42;61.73;;;34.37;;
80653;SDS011;70020;45.524;10.240;2024-03-22T07:02:08;58.45;;;33.38;;
80653;SDS011;70020;45.524;10.240;2024-03-22T07:04:34;51.70;;;29.33;;
80653;SDS011;70020;45.524;10.240;2024-03-22T07:07:00;42.38;;;25.05;;
80653;SDS011;70020;45.524;10.240;2024-03-22T07:09:26;42.83;;;24.13;;
80653;SDS011;70020;45.524;10.240;2024-03-22T07:11:54;39.10;;;22.85;;
80653;SDS011;70020;45.524;10.240;2024-03-22T07:14:20;41.72;;;24.85;;
80653;SDS011;70020;45.524;10.240;2024-03-22T07:16:49;42.92;;;25.02;;
80653;SDS011;70020;45.524;10.240;2024-03-22T07:19:18;35.08;;;22.10;;
80653;SDS011;70020;45.524;10.240;2024-03-22T07:21:43;38.20;;;21.23;;
80653;SDS011;70020;45.524;10.240;2024-03-22T07:24:09;40.20;;;23.30;;
80653;SDS011;70020;45.524;10.240;2024-03-22T07:26:35;44.78;;;25.30;;
80653;SDS011;70020;45.524;10.240;2024-03-22T07:29:01;42.33;;;25.45;;
80653;SDS011;70020;45.524;10.240;2024-03-22T07:33:56;55.17;;;31.48;;
80653;SDS011;70020;45.524;10.240;2024-03-22T07:36:22;56.03;;;32.30;;
80653;SDS011;70020;45.524;10.240;2024-03-22T07:38:47;55.23;;;34.70;;
80653;SDS011;70020;45.524;10.240;2024-03-22T07:41:14;58.60;;;34.65;;
80653;SDS011;70020;45.524;10.240;2024-03-22T07:43:40;58.45;;;34.85;;
80653;SDS011;70020;45.524;10.240;2024-03-22T07:46:06;57.67;;;33.77;;
80653;SDS011;70020;45.524;10.240;2024-03-22T07:48:31;59.03;;;35.77;;
80653;SDS011;70020;45.524;10.240;2024-03-22T07:50:57;56.08;;;35.15;;
80653;SDS011;70020;45.524;10.240;2024-03-22T07:55:49;64.60;;;38.22;;
80653;SDS011;70020;45.524;10.240;2024-03-22T07:58:14;60.80;;;35.72;;
80653;SDS011;70020;45.524;10.240;2024-03-22T08:00:40;63.67;;;37.80;;
80653;SDS011;70020;45.524;10.240;2024-03-22T08:03:06;61.65;;;36.40;;
80653;SDS011;70020;45.524;10.240;2024-03-22T08:05:32;58.88;;;36.28;;
80653;SDS011;70020;45.524;10.240;2024-03-22T08:07:58;58.17;;;36.35;;
80653;SDS011;70020;45.524;10.240;2024-03-22T08:10:24;55.88;;;33.70;;
80653;SDS011;70020;45.524;10.240;2024-03-22T08:12:50;60.53;;;36.22;;
80653;SDS011;70020;45.524;10.240;2024-03-22T08:15:17;61.20;;;37.15;;
80653;SDS011;70020;45.524;10.240;2024-03-22T08:17:44;50.47;;;32.33;;
80653;SDS011;70020;45.524;10.240;2024-03-22T08:22:35;55.53;;;32.10;;
80653;SDS011;70020;45.524;10.240;2024-03-22T08:25:02;53.20;;;32.75;;
80653;SDS011;70020;45.524;10.240;2024-03-22T08:27:29;55.47;;;31.50;;
80653;SDS011;70020;45.524;10.240;2024-03-22T08:29:55;50.80;;;29.38;;
80653;SDS011;70020;45.524;10.240;2024-03-22T08:32:20;46.20;;;27.20;;
80653;SDS011;70020;45.524;10.240;2024-03-22T08:34:47;46.03;;;26.45;;
80653;SDS011;70020;45.524;10.240;2024-03-22T08:37:13;41.10;;;26.27;;
80653;SDS011;70020;45.524;10.240;2024-03-22T08:39:38;44.67;;;26.77;;
80653;SDS011;70020;45.524;10.240;2024-03-22T08:42:04;44.58;;;26.10;;
80653;SDS011;70020;45.524;10.240;2024-03-22T08:44:31;48.50;;;29.48;;
80653;SDS011;70020;45.524;10.240;2024-03-22T08:46:57;53.50;;;30.38;;
80653;SDS011;70020;45.524;10.240;2024-03-22T08:49:23;54.60;;;31.42;;
80653;SDS011;70020;45.524;10.240;2024-03-22T08:51:48;55.47;;;34.45;;
80653;SDS011;70020;45.524;10.240;2024-03-22T08:54:14;56.72;;;34.97;;
80653;SDS011;70020;45.524;10.240;2024-03-22T08:56:40;65.13;;;35.78;;
80653;SDS011;70020;45.524;10.240;2024-03-22T08:59:06;61.85;;;36.83;;
80653;SDS011;70020;45.524;10.240;2024-03-22T09:01:32;59.03;;;37.72;;
80653;SDS011;70020;45.524;10.240;2024-03-22T09:03:57;61.88;;;36.58;;
80653;SDS011;70020;45.524;10.240;2024-03-22T09:06:23;59.85;;;37.13;;
80653;SDS011;70020;45.524;10.240;2024-03-22T09:08:48;59.33;;;36.47;;
80653;SDS011;70020;45.524;10.240;2024-03-22T09:11:15;59.10;;;36.88;;
80653;SDS011;70020;45.524;10.240;2024-03-22T09:13:40;59.77;;;37.63;;
80653;SDS011;70020;45.524;10.240;2024-03-22T09:16:07;60.88;;;36.50;;
80653;SDS011;70020;45.524;10.240;2024-03-22T09:18:33;66.20;;;39.38;;
80653;SDS011;70020;45.524;10.240;2024-03-22T09:20:58;58.85;;;37.13;;
80653;SDS011;70020;45.524;10.240;2024-03-22T09:23:24;57.83;;;35.53;;
80653;SDS011;70020;45.524;10.240;2024-03-22T09:25:50;58.13;;;36.47;;
80653;SDS011;70020;45.524;10.240;2024-03-22T09:28:15;55.75;;;34.58;;
80653;SDS011;70020;45.524;10.240;2024-03-22T09:30:42;54.13;;;35.35;;
80653;SDS011;70020;45.524;10.240;2024-03-22T09:33:12;63.28;;;37.40;;
80653;SDS011;70020;45.524;10.240;2024-03-22T09:35:38;65.97;;;38.58;;
80653;SDS011;70020;45.524;10.240;2024-03-22T09:38:04;58.83;;;36.65;;
80653;SDS011;70020;45.524;10.240;2024-03-22T09:40:29;62.05;;;37.35;;
80653;SDS011;70020;45.524;10.240;2024-03-22T09:42:57;69.38;;;39.63;;
80653;SDS011;70020;45.524;10.240;2024-03-22T09:45:28;61.42;;;37.20;;
80653;SDS011;70020;45.524;10.240;2024-03-22T09:47:55;66.75;;;38.80;;
80653;SDS011;70020;45.524;10.240;2024-03-22T09:50:22;65.00;;;39.13;;
80653;SDS011;70020;45.524;10.240;2024-03-22T09:52:48;61.53;;;36.88;;
80653;SDS011;70020;45.524;10.240;2024-03-22T09:55:25;61.72;;;36.97;;
80653;SDS011;70020;45.524;10.240;2024-03-22T09:57:51;63.90;;;36.05;;
80653;SDS011;70020;45.524;10.240;2024-03-22T10:00:19;59.25;;;35.47;;
80653;SDS011;70020;45.524;10.240;2024-03-22T10:02:46;55.85;;;35.33;;
80653;SDS011;70020;45.524;10.240;2024-03-22T10:05:12;55.42;;;33.45;;
80653;SDS011;70020;45.524;10.240;2024-03-22T10:07:38;52.27;;;33.80;;
80653;SDS011;70020;45.524;10.240;2024-03-22T10:10:05;53.08;;;31.20;;
80653;SDS011;70020;45.524;10.240;2024-03-22T10:12:32;50.53;;;30.80;;
80653;SDS011;70020;45.524;10.240;2024-03-22T10:14:58;52.42;;;30.73;;
80653;SDS011;70020;45.524;10.240;2024-03-22T10:17:25;57.50;;;28.60;;
80653;SDS011;70020;45.524;10.240;2024-03-22T10:19:52;46.58;;;29.08;;
80653;SDS011;70020;45.524;10.240;2024-03-22T10:22:18;47.13;;;28.15;;
80653;SDS011;70020;45.524;10.240;2024-03-22T10:24:44;45.63;;;28.38;;
80653;SDS011;70020;45.524;10.240;2024-03-22T10:27:10;46.83;;;25.48;;
80653;SDS011;70020;45.524;10.240;2024-03-22T10:29:36;31.20;;;20.75;;
80653;SDS011;70020;45.524;10.240;2024-03-22T10:32:02;35.65;;;23.20;;
80653;SDS011;70020;45.524;10.240;2024-03-22T10:34:28;38.70;;;24.17;;
80653;SDS011;70020;45.524;10.240;2024-03-22T10:36:57;39.13;;;23.98;;
80653;SDS011;70020;45.524;10.240;2024-03-22T10:39:25;45.95;;;25.10;;
80653;SDS011;70020;45.524;10.240;2024-03-22T10:41:54;41.60;;;23.92;;
80653;SDS011;70020;45.524;10.240;2024-03-22T10:44:20;38.85;;;24.83;;
80653;SDS011;70020;45.524;10.240;2024-03-22T10:46:47;18.52;;;11.15;;
80653;SDS011;70020;45.524;10.240;2024-03-22T10:49:17;15.70;;;7.68;;
80653;SDS011;70020;45.524;10.240;2024-03-22T10:51:46;7.57;;;5.43;;
80653;SDS011;70020;45.524;10.240;2024-03-22T10:54:21;9.95;;;5.80;;
80653;SDS011;70020;45.524;10.240;2024-03-22T10:56:49;7.82;;;4.82;;
80653;SDS011;70020;45.524;10.240;2024-03-22T10:59:19;9.38;;;6.72;;
80653;SDS011;70020;45.524;10.240;2024-03-22T11:01:47;13.63;;;8.65;;
80653;SDS011;70020;45.524;10.240;2024-03-22T11:04:15;17.08;;;11.25;;
80653;SDS011;70020;45.524;10.240;2024-03-22T11:07:03;16.33;;;10.93;;
80653;SDS011;70020;45.524;10.240;2024-03-22T11:09:29;15.63;;;10.70;;
80653;SDS011;70020;45.524;10.240;2024-03-22T11:11:55;21.80;;;13.27;;
80653;SDS011;70020;45.524;10.240;2024-03-22T11:14:25;19.33;;;13.32;;
80653;SDS011;70020;45.524;10.240;2024-03-22T11:16:51;21.40;;;14.20;;
80653;SDS011;70020;45.524;10.240;2024-03-22T11:19:17;20.45;;;14.63;;
80653;SDS011;70020;45.524;10.240;2024-03-22T11:21:43;17.38;;;11.80;;
80653;SDS011;70020;45.524;10.240;2024-03-22T11:24:09;16.05;;;8.43;;
80653;SDS011;70020;45.524;10.240;2024-03-22T11:26:36;11.77;;;7.97;;
80653;SDS011;70020;45.524;10.240;2024-03-22T11:29:01;10.57;;;6.68;;
80653;SDS011;70020;45.524;10.240;2024-03-22T11:31:27;15.68;;;8.40;;
80653;SDS011;70020;45.524;10.240;2024-03-22T11:33:53;10.10;;;6.97;;
80653;SDS011;70020;45.524;10.240;2024-03-22T11:38:46;16.92;;;10.18;;
80653;SDS011;70020;45.524;10.240;2024-03-22T11:41:19;16.63;;;10.80;;
80653;SDS011;70020;45.524;10.240;2024-03-22T11:43:52;16.40;;;10.23;;
80653;SDS011;70020;45.524;10.240;2024-03-22T11:46:19;23.25;;;12.82;;
80653;SDS011;70020;45.524;10.240;2024-03-22T11:48:50;22.55;;;14.05;;
80653;SDS011;70020;45.524;10.240;2024-03-22T11:51:17;24.63;;;14.32;;
80653;SDS011;70020;45.524;10.240;2024-03-22T11:53:48;21.92;;;13.15;;
80653;SDS011;70020;45.524;10.240;2024-03-22T11:56:17;19.70;;;13.65;;
80653;SDS011;70020;45.524;10.240;2024-03-22T11:58:45;19.00;;;12.23;;
80653;SDS011;70020;45.524;10.240;2024-03-22T12:01:17;16.63;;;11.02;;
80653;SDS011;70020;45.524;10.240;2024-03-22T12:03:45;19.13;;;11.77;;
80653;SDS011;70020;45.524;10.240;2024-03-22T12:06:12;18.90;;;12.55;;
80653;SDS011;70020;45.524;10.240;2024-03-22T12:08:38;24.83;;;13.75;;
80653;SDS011;70020;45.524;10.240;2024-03-22T12:11:06;21.73;;;14.13;;
80653;SDS011;70020;45.524;10.240;2024-03-22T12:13:32;21.58;;;14.02;;
80653;SDS011;70020;45.524;10.240;2024-03-22T12:15:58;20.35;;;12.63;;
80653;SDS011;70020;45.524;10.240;2024-03-22T12:18:24;17.48;;;12.00;;
80653;SDS011;70020;45.524;10.240;2024-03-22T12:23:19;20.45;;;11.80;;
80653;SDS011;70020;45.524;10.240;2024-03-22T12:28:11;16.98;;;10.07;;
80653;SDS011;70020;45.524;10.240;2024-03-22T12:30:36;17.92;;;10.10;;
80653;SDS011;70020;45.524;10.240;2024-03-22T12:33:02;12.82;;;8.65;;
80653;SDS011;70020;45.524;10.240;2024-03-22T12:35:30;11.23;;;6.90;;
80653;SDS011;70020;45.524;10.240;2024-03-22T12:37:57;10.77;;;6.93;;
80653;SDS011;70020;45.524;10.240;2024-03-22T12:40:23;12.10;;;6.88;;
80653;SDS011;70020;45.524;10.240;2024-03-22T12:42:49;10.40;;;7.32;;
80653;SDS011;70020;45.524;10.240;2024-03-22T12:45:15;17.50;;;11.70;;
80653;SDS011;70020;45.524;10.240;2024-03-22T12:47:41;17.33;;;11.43;;
80653;SDS011;70020;45.524;10.240;2024-03-22T12:50:06;16.60;;;11.97;;
80653;SDS011;70020;45.524;10.240;2024-03-22T12:52:32;19.45;;;13.43;;
80653;SDS011;70020;45.524;10.240;2024-03-22T12:54:58;16.38;;;12.13;;
80653;SDS011;70020;45.524;10.240;2024-03-22T12:59:50;18.35;;;11.73;;
80653;SDS011;70020;45.524;10.240;2024-03-22T13:02:15;18.90;;;12.10;;
80653;SDS011;70020;45.524;10.240;2024-03-22T13:04:41;11.83;;;8.63;;
80653;SDS011;70020;45.524;10.240;2024-03-22T13:07:08;19.15;;;12.68;;
80653;SDS011;70020;45.524;10.240;2024-03-22T13:09:34;20.77;;;12.35;;
80653;SDS011;70020;45.524;10.240;2024-03-22T13:14:26;20.50;;;13.88;;
80653;SDS011;70020;45.524;10.240;2024-03-22T13:16:53;19.70;;;12.55;;
80653;SDS011;70020;45.524;10.240;2024-03-22T13:19:19;26.20;;;16.27;;
80653;SDS011;70020;45.524;10.240;2024-03-22T13:21:44;28.23;;;19.07;;
80653;SDS011;70020;45.524;10.240;2024-03-22T13:24:13;23.27;;;16.85;;
80653;SDS011;70020;45.524;10.240;2024-03-22T13:26:38;22.42;;;16.35;;
80653;SDS011;70020;45.524;10.240;2024-03-22T13:29:05;27.02;;;16.35;;
80653;SDS011;70020;45.524;10.240;2024-03-22T13:31:35;24.67;;;17.25;;
80653;SDS011;70020;45.524;10.240;2024-03-22T13:34:01;22.55;;;14.52;;
80653;SDS011;70020;45.524;10.240;2024-03-22T13:36:26;21.97;;;14.67;;
80653;SDS011;70020;45.524;10.240;2024-03-22T13:38:53;21.48;;;14.07;;
80653;SDS011;70020;45.524;10.240;2024-03-22T13:41:20;19.65;;;13.65;;
80653;SDS011;70020;45.524;10.240;2024-03-22T13:43:46;20.23;;;14.35;;
80653;SDS011;70020;45.524;10.240;2024-03-22T13:46:11;23.02;;;14.70;;
80653;SDS011;70020;45.524;10.240;2024-03-22T13:48:40;16.35;;;11.57;;
80653;SDS011;70020;45.524;10.240;2024-03-22T13:51:05;20.95;;;13.38;;
80653;SDS011;70020;45.524;10.240;2024-03-22T13:53:32;21.02;;;14.52;;
80653;SDS011;70020;45.524;10.240;2024-03-22T13:55:58;25.17;;;15.13;;
80653;SDS011;70020;45.524;10.240;2024-03-22T13:58:23;20.88;;;13.95;;
80653;SDS011;70020;45.524;10.240;2024-03-22T14:00:49;23.23;;;16.33;;
80653;SDS011;70020;45.524;10.240;2024-03-22T14:03:15;22.88;;;16.20;;
80653;SDS011;70020;45.524;10.240;2024-03-22T14:05:41;22.50;;;15.75;;
80653;SDS011;70020;45.524;10.240;2024-03-22T14:08:07;21.00;;;15.57;;
80653;SDS011;70020;45.524;10.240;2024-03-22T14:10:32;20.63;;;14.77;;
80653;SDS011;70020;45.524;10.240;2024-03-22T14:12:58;22.15;;;14.63;;
80653;SDS011;70020;45.524;10.240;2024-03-22T14:15:24;21.70;;;14.63;;
80653;SDS011;70020;45.524;10.240;2024-03-22T14:17:51;23.42;;;16.27;;
80653;SDS011;70020;45.524;10.240;2024-03-22T14:20:17;23.48;;;16.20;;
80653;SDS011;70020;45.524;10.240;2024-03-22T14:22:44;22.02;;;15.93;;
80653;SDS011;70020;45.524;10.240;2024-03-22T14:25:10;22.58;;;15.50;;
80653;SDS011;70020;45.524;10.240;2024-03-22T14:27:36;19.40;;;15.13;;
80653;SDS011;70020;45.524;10.240;2024-03-22T14:30:02;20.85;;;15.02;;
80653;SDS011;70020;45.524;10.240;2024-03-22T14:32:31;20.00;;;14.43;;
80653;SDS011;70020;45.524;10.240;2024-03-22T14:34:57;27.63;;;15.65;;
80653;SDS011;70020;45.524;10.240;2024-03-22T14:37:22;19.20;;;14.50;;
80653;SDS011;70020;45.524;10.240;2024-03-22T14:39:48;23.48;;;14.77;;
80653;SDS011;70020;45.524;10.240;2024-03-22T14:42:14;24.65;;;15.88;;
80653;SDS011;70020;45.524;10.240;2024-03-22T14:47:06;24.50;;;16.52;;